»·PEaware :: N7697G KSMX-KBFL

N7697G :: KSMX-KBFL

FLIGHT INFORMATION

Flight Status: Arrived
Operator: Privately registered:
United States
More flights under this callsign
Pilot: Carlos P. (20373)
Aircraft: CESSNA 172 SKYHAWK
(C172)
More flights by this aircraft type
Origin: KSMX Santa Maria Pub/Capt Hancock
United States
Destination: KBFL Meadows
United States
More flights between these airports :: More routes between these airports
Route: +DIRECT
File this flight plan on PilotEdge
Remarks:
Altitude:
(Current/Filed)
7,500ft
Speed:
(Current/Filed)
120kts
Departed: 22-Sep-18 09:58 AM
Arrived: 22-Sep-18 10:48 AM
Distance/Time
Traveled:
76nm/0:50
Distance/Time
To Go:
Arrived

Flight Plot

Page will automatically refresh every two minutes.


Map Options




Map Legend


Flown Route
Filed Route
Departure Airport
Arrival Airport
Navaid (VOR, NDB)
Fix

Horizontal Profiles

Position Reports

Time Latitude Longitude Heading Altitude Ground
Speed
22-Sep-18 09:47 34.896802 -120.445898 273 265ft 0kts
22-Sep-18 09:48 34.896802 -120.445898 273 265ft 0kts
22-Sep-18 09:49 34.896802 -120.445898 273 265ft 0kts
22-Sep-18 09:50 34.896802 -120.445898 273 265ft 0kts
22-Sep-18 09:51 34.896802 -120.445898 273 265ft 0kts
22-Sep-18 09:52 34.896802 -120.445898 273 265ft 0kts
22-Sep-18 09:53 34.896802 -120.445898 273 265ft 0kts
22-Sep-18 09:54 34.896815 -120.446378 276 265ft 10kts
22-Sep-18 09:55 34.894038 -120.444878 154 265ft 16kts
22-Sep-18 09:56 34.893553 -120.444622 262 265ft 0kts
22-Sep-18 09:57 34.893553 -120.444622 262 265ft 0kts
22-Sep-18 09:58 34.893232 -120.444956 177 265ft 0kts
22-Sep-18 09:59 34.893232 -120.444956 177 265ft 0kts
22-Sep-18 10:00 34.898653 -120.452702 315 462ft 81kts
22-Sep-18 10:01 34.916004 -120.471652 343 1492ft 86kts
22-Sep-18 10:02 34.937730 -120.461150 39 2457ft 89kts
22-Sep-18 10:03 34.951442 -120.435810 60 3341ft 92kts
22-Sep-18 10:04 34.963903 -120.408396 63 4171ft 93kts
22-Sep-18 10:05 34.975194 -120.379938 63 4962ft 94kts
22-Sep-18 10:06 34.987024 -120.351470 60 5700ft 95kts
22-Sep-18 10:07 34.999713 -120.323095 61 6389ft 96kts
22-Sep-18 10:08 35.011995 -120.294001 64 7034ft 97kts
22-Sep-18 10:09 35.022716 -120.263715 66 7483ft 97kts
22-Sep-18 10:10 35.033249 -120.232282 66 7524ft 102kts
22-Sep-18 10:11 35.044558 -120.200167 66 7534ft 104kts
22-Sep-18 10:12 35.056526 -120.167881 65 7536ft 105kts
22-Sep-18 10:13 35.068739 -120.135429 65 7526ft 105kts
22-Sep-18 10:14 35.080643 -120.102804 61 7518ft 105kts
22-Sep-18 10:15 35.094457 -120.071391 61 7511ft 105kts
22-Sep-18 10:16 35.106240 -120.040305 66 7507ft 105kts
22-Sep-18 10:17 35.118255 -120.007450 66 7562ft 106kts
22-Sep-18 10:18 35.129639 -119.973239 69 7541ft 109kts
22-Sep-18 10:19 35.141259 -119.938184 65 7489ft 111kts
22-Sep-18 10:20 35.153282 -119.903381 66 7464ft 110kts
22-Sep-18 10:21 35.164839 -119.869203 65 7490ft 108kts
22-Sep-18 10:22 35.176795 -119.835320 67 7503ft 109kts
22-Sep-18 10:23 35.188572 -119.801011 67 7491ft 110kts
22-Sep-18 10:24 35.200049 -119.766052 67 7466ft 110kts
22-Sep-18 10:25 35.211750 -119.731403 67 7462ft 109kts
22-Sep-18 10:26 35.223015 -119.697255 67 7494ft 108kts
22-Sep-18 10:27 35.234762 -119.663181 67 7494ft 109kts
22-Sep-18 10:28 35.246222 -119.628704 66 7504ft 109kts
22-Sep-18 10:29 35.257675 -119.594376 68 7511ft 109kts
22-Sep-18 10:30 35.269057 -119.559853 66 7507ft 109kts
22-Sep-18 10:31 35.281221 -119.525748 66 7498ft 109kts
22-Sep-18 10:32 35.292451 -119.491031 65 7493ft 109kts
22-Sep-18 10:33 35.303744 -119.456390 66 7488ft 109kts
22-Sep-18 10:34 35.315039 -119.423463 66 7012ft 104kts
22-Sep-18 10:35 35.325516 -119.391370 68 6478ft 103kts
22-Sep-18 10:36 35.335794 -119.359781 67 5821ft 101kts
22-Sep-18 10:37 35.346040 -119.329506 68 5156ft 100kts
22-Sep-18 10:38 35.357488 -119.299664 60 4522ft 98kts
22-Sep-18 10:39 35.368531 -119.271177 64 4079ft 92kts
22-Sep-18 10:40 35.378444 -119.242447 69 3959ft 90kts
22-Sep-18 10:41 35.387552 -119.213374 69 3931ft 92kts
22-Sep-18 10:42 35.395703 -119.183845 70 3869ft 92kts
22-Sep-18 10:43 35.404907 -119.154376 66 3682ft 97kts
22-Sep-18 10:44 35.413271 -119.124125 97 3017ft 105kts
22-Sep-18 10:45 35.401946 -119.096850 120 2351ft 108kts
22-Sep-18 10:46 35.395758 -119.068897 90 1671ft 101kts
22-Sep-18 10:47 35.403763 -119.044512 45 1417ft 77kts
22-Sep-18 10:48 35.419118 -119.038562 324 1027ft 73kts
22-Sep-18 10:49 35.432213 -119.054218 318 530ft 55kts
22-Sep-18 10:50 35.436294 -119.057776 67 510ft 0kts
22-Sep-18 10:51 35.436294 -119.057776 67 510ft 0kts
22-Sep-18 10:52 35.436329 -119.057627 77 510ft 8kts
22-Sep-18 10:53 35.432534 -119.052282 44 510ft 10kts
22-Sep-18 10:54 35.433404 -119.051679 219 510ft 0kts
22-Sep-18 10:55 35.433404 -119.051679 219 510ft 0kts
22-Sep-18 10:56 35.433404 -119.051679 219 510ft 0kts
22-Sep-18 10:57 35.433404 -119.051679 219 510ft 0kts
22-Sep-18 10:58 35.433404 -119.051679 219 510ft 0kts
22-Sep-18 10:59 35.433404 -119.051679 219 510ft 0kts
22-Sep-18 11:00 35.433404 -119.051679 219 510ft 0kts
22-Sep-18 11:01 35.433404 -119.051679 219 510ft 0kts
22-Sep-18 11:02 35.433404 -119.051679 219 510ft 0kts

Navigation Log

Ident Type
Flight plan parsing failed, navigation log unavailable